Time;durP1;ratioP1;P1;durP2;ratioP2;P2;SDS_P1;SDS_P2;PMS_P1;PMS_P2;Temp;Humidity;BMP_temperature;BMP_pressure;BME280_temperature;BME280_humidity;BME280_pressure;Samples;Min_cycle;Max_cycle;Signal;HPM_P1;HPM_P2
2023/07/18 00:01:43;;;;;;;11.75;7.90;;;24.90;99.90;;;;;;4768243;29;20101;-83
2023/07/18 00:04:10;;;;;;;11.05;7.63;;;24.80;99.90;;;;;;4762951;30;20072;-83
2023/07/18 00:06:40;;;;;;;9.90;7.53;;;24.70;99.90;;;;;;4777953;29;20051;-83
2023/07/18 00:09:07;;;;;;;11.32;8.25;;;24.80;99.90;;;;;;4765308;30;20478;-83
2023/07/18 00:11:36;;;;;;;11.70;7.88;;;24.80;99.90;;;;;;4766690;30;20138;-83
2023/07/18 00:14:03;;;;;;;11.50;7.78;;;24.80;99.90;;;;;;4763602;29;20062;-83
2023/07/18 00:16:30;;;;;;;11.85;8.00;;;24.70;99.90;;;;;;4768870;30;20043;-83
2023/07/18 00:18:57;;;;;;;11.73;8.25;;;24.70;99.90;;;;;;4775373;29;20525;-83
2023/07/18 00:21:25;;;;;;;10.35;7.82;;;24.70;99.90;;;;;;4762748;29;20134;-83
2023/07/18 00:23:52;;;;;;;11.07;7.55;;;24.70;99.90;;;;;;4771623;29;20083;-83
2023/07/18 00:26:20;;;;;;;8.85;7.50;;;24.60;99.90;;;;;;4754483;30;20051;-83
2023/07/18 00:28:47;;;;;;;13.80;8.00;;;24.60;99.90;;;;;;4780206;29;20097;-83
2023/07/18 00:31:15;;;;;;;9.98;7.45;;;24.60;99.90;;;;;;4746707;30;20065;-83
2023/07/18 00:33:42;;;;;;;10.77;7.57;;;24.60;99.90;;;;;;4761133;29;20059;-83
2023/07/18 00:36:09;;;;;;;10.35;8.18;;;24.60;99.90;;;;;;4751222;30;20128;-83
2023/07/18 00:38:37;;;;;;;10.90;8.25;;;24.60;99.90;;;;;;4762551;30;20067;-83
2023/07/18 00:41:05;;;;;;;12.18;7.97;;;24.60;99.90;;;;;;4744055;29;20845;-83
2023/07/18 00:43:33;;;;;;;10.00;7.90;;;24.60;99.90;;;;;;4761110;30;20055;-83
2023/07/18 00:46:04;;;;;;;10.07;7.75;;;24.50;99.90;;;;;;4775221;29;20054;-83
2023/07/18 00:48:32;;;;;;;10.02;8.07;;;24.50;99.90;;;;;;4762863;29;20136;-83
2023/07/18 00:51:04;;;;;;;12.98;8.93;;;24.50;99.90;;;;;;4776353;29;20051;-83
2023/07/18 00:53:33;;;;;;;11.18;8.05;;;24.40;99.90;;;;;;4758899;29;20057;-83
2023/07/18 00:56:02;;;;;;;11.93;8.93;;;24.40;99.90;;;;;;4773569;29;20067;-83
2023/07/18 00:58:30;;;;;;;11.38;7.85;;;24.40;99.90;;;;;;4766072;30;20052;-83
2023/07/18 01:01:00;;;;;;;11.43;8.25;;;24.40;99.90;;;;;;4776208;29;20466;-82
2023/07/18 01:03:29;;;;;;;9.60;7.65;;;24.40;99.90;;;;;;4768425;29;20138;-83
2023/07/18 01:05:57;;;;;;;10.50;7.50;;;24.30;99.90;;;;;;4768489;29;20047;-82
2023/07/18 01:08:24;;;;;;;10.07;7.15;;;24.30;99.90;;;;;;4764386;30;20046;-83
2023/07/18 01:10:52;;;;;;;12.32;7.95;;;24.30;99.90;;;;;;4770210;29;20077;-83
2023/07/18 01:13:19;;;;;;;9.65;7.68;;;24.30;99.90;;;;;;4763021;29;20058;-83
2023/07/18 01:15:46;;;;;;;12.82;8.15;;;24.30;99.90;;;;;;4782519;29;20063;-83
2023/07/18 01:18:14;;;;;;;9.93;7.47;;;24.30;99.90;;;;;;4765541;29;20068;-82
2023/07/18 01:20:44;;;;;;;13.65;8.07;;;24.30;99.90;;;;;;4774046;29;20039;-83
2023/07/18 01:23:12;;;;;;;10.27;7.10;;;24.30;99.90;;;;;;4776260;29;20066;-83
2023/07/18 01:25:40;;;;;;;10.35;7.70;;;24.20;99.90;;;;;;4758855;30;22984;-83
2023/07/18 01:28:08;;;;;;;10.00;7.30;;;24.20;99.90;;;;;;4758207;29;20056;-83
2023/07/18 01:30:35;;;;;;;8.07;6.72;;;24.20;99.90;;;;;;4764472;30;20058;-83
2023/07/18 01:33:02;;;;;;;9.95;7.65;;;24.20;99.90;;;;;;4747451;29;20060;-83
2023/07/18 01:35:30;;;;;;;11.20;7.53;;;24.10;99.90;;;;;;4767129;30;20538;-83
2023/07/18 01:37:58;;;;;;;12.05;8.30;;;24.10;99.90;;;;;;4764446;29;20112;-83
2023/07/18 01:40:26;;;;;;;11.98;8.43;;;24.10;99.90;;;;;;4773568;29;20071;-83
2023/07/18 01:42:55;;;;;;;12.93;8.48;;;24.10;99.90;;;;;;4767454;30;20787;-83
2023/07/18 01:45:24;;;;;;;12.07;9.10;;;24.10;99.90;;;;;;4775061;29;20086;-83
2023/07/18 01:47:54;;;;;;;10.40;7.65;;;24.10;99.90;;;;;;4762439;30;20059;-82
2023/07/18 01:50:21;;;;;;;12.35;8.10;;;24.10;99.90;;;;;;4766466;29;20322;-82
2023/07/18 01:52:48;;;;;;;13.85;8.15;;;24.00;99.90;;;;;;4752738;30;20059;-82
2023/07/18 01:55:16;;;;;;;11.15;7.65;;;24.00;99.90;;;;;;4777075;29;20140;-82
2023/07/18 01:57:46;;;;;;;15.20;8.23;;;24.10;99.90;;;;;;4774475;29;20078;-83
2023/07/18 02:00:21;;;;;;;10.23;7.55;;;24.00;99.90;;;;;;4757280;29;20062;-83
2023/07/18 02:02:53;;;;;;;13.57;8.00;;;24.00;99.90;;;;;;4769316;29;20117;-82
2023/07/18 02:05:22;;;;;;;;;;;24.00;99.90;;;;;;4770150;29;20059;-82
2023/07/18 02:07:49;;;;;;;12.30;8.20;;;24.00;99.90;;;;;;4773992;29;19983;-82
2023/07/18 02:10:21;;;;;;;10.27;7.88;;;23.90;99.90;;;;;;4772683;29;20059;-82
2023/07/18 02:12:50;;;;;;;11.02;7.50;;;23.90;99.90;;;;;;4763898;29;20059;-82
2023/07/18 02:15:20;;;;;;;9.20;7.28;;;23.90;99.90;;;;;;4772329;29;20063;-82
2023/07/18 02:17:48;;;;;;;10.68;8.48;;;23.90;99.90;;;;;;4778268;29;20066;-82
2023/07/18 02:20:16;;;;;;;10.48;7.40;;;23.90;99.90;;;;;;4764689;29;20051;-82
2023/07/18 02:22:44;;;;;;;9.15;6.90;;;23.90;99.90;;;;;;4777851;29;20206;-82
2023/07/18 02:25:15;;;;;;;10.85;8.63;;;24.00;99.90;;;;;;4758121;29;22884;-82
2023/07/18 02:27:42;;;;;;;10.52;7.75;;;23.90;99.90;;;;;;4760858;29;20080;-82
2023/07/18 02:30:13;;;;;;;12.00;8.38;;;23.90;99.90;;;;;;4757690;29;22994;-82
2023/07/18 02:32:42;;;;;;;10.25;8.10;;;23.90;99.90;;;;;;4774667;29;20524;-82
2023/07/18 02:35:11;;;;;;;12.50;8.00;;;23.80;99.90;;;;;;4763286;29;20061;-82
2023/07/18 02:37:38;;;;;;;8.82;7.10;;;23.80;99.90;;;;;;4759399;29;20071;-82
2023/07/18 02:40:09;;;;;;;12.25;8.40;;;23.80;99.90;;;;;;4761025;29;20127;-82
2023/07/18 02:42:38;;;;;;;12.52;8.68;;;23.70;99.90;;;;;;4763387;29;20056;-82
2023/07/18 02:45:09;;;;;;;11.45;8.02;;;23.80;99.90;;;;;;4768411;29;20048;-82
2023/07/18 02:47:38;;;;;;;13.18;8.93;;;23.70;99.90;;;;;;4759510;30;20047;-82
2023/07/18 02:50:07;;;;;;;14.40;8.63;;;23.70;99.90;;;;;;4762649;29;20050;-82
2023/07/18 02:52:35;;;;;;;12.40;9.07;;;23.70;99.90;;;;;;4762361;30;20124;-83
2023/07/18 02:55:04;;;;;;;12.40;8.48;;;23.70;99.90;;;;;;4767876;29;20050;-83
2023/07/18 02:57:31;;;;;;;9.98;8.10;;;23.70;99.90;;;;;;4772991;29;20469;-82
2023/07/18 02:59:59;;;;;;;11.50;7.15;;;23.70;99.90;;;;;;4761867;30;20062;-82
2023/07/18 03:02:31;;;;;;;11.48;8.07;;;23.70;99.90;;;;;;4764000;30;21068;-83
2023/07/18 03:04:58;;;;;;;11.68;8.02;;;23.70;99.90;;;;;;4766727;30;20135;-82
2023/07/18 03:07:25;;;;;;;12.43;8.65;;;23.60;99.90;;;;;;4765970;29;20063;-82
2023/07/18 03:09:55;;;;;;;12.55;8.20;;;23.60;99.90;;;;;;4764912;29;20943;-82
2023/07/18 03:12:22;;;;;;;10.00;7.50;;;23.60;99.90;;;;;;4761274;30;20086;-83
2023/07/18 03:14:50;;;;;;;12.95;8.10;;;23.60;99.90;;;;;;4776063;29;20059;-82
2023/07/18 03:17:20;;;;;;;12.57;7.30;;;23.60;99.90;;;;;;4767376;29;20067;-82
2023/07/18 03:19:48;;;;;;;8.80;6.95;;;23.60;99.90;;;;;;4762634;29;20062;-83
2023/07/18 03:22:15;;;;;;;8.40;6.75;;;23.60;99.90;;;;;;4754254;30;20062;-82
2023/07/18 03:24:43;;;;;;;10.48;7.57;;;23.60;99.90;;;;;;4772527;29;20064;-82
2023/07/18 03:27:12;;;;;;;11.48;7.40;;;23.60;99.90;;;;;;4767587;29;20062;-82
2023/07/18 03:29:40;;;;;;;12.52;7.55;;;23.60;99.90;;;;;;4767673;29;20430;-82
2023/07/18 03:32:09;;;;;;;12.10;8.05;;;23.60;99.90;;;;;;4770117;29;20469;-83
2023/07/18 03:34:37;;;;;;;10.57;7.60;;;23.60;99.90;;;;;;4763894;29;20444;-83
2023/07/18 03:37:06;;;;;;;10.13;7.28;;;23.60;99.90;;;;;;4750970;29;20601;-82
2023/07/18 03:39:36;;;;;;;11.98;7.50;;;23.60;99.90;;;;;;4761314;29;20044;-83
2023/07/18 03:42:03;;;;;;;10.88;7.70;;;23.60;99.90;;;;;;4765649;30;20127;-82
2023/07/18 03:44:30;;;;;;;11.25;7.30;;;23.60;99.90;;;;;;4775191;29;20054;-83
2023/07/18 03:46:58;;;;;;;7.30;6.05;;;23.60;99.90;;;;;;4752825;30;20043;-83
2023/07/18 03:49:45;;;;;;;9.27;6.68;;;23.60;99.90;;;;;;4766475;29;20050;-81
2023/07/18 03:52:12;;;;;;;9.45;6.70;;;23.70;99.90;;;;;;4753273;29;20081;-83
2023/07/18 03:54:40;;;;;;;10.35;7.20;;;23.70;99.90;;;;;;4751919;29;20071;-83
2023/07/18 03:57:07;;;;;;;9.15;7.10;;;23.80;99.90;;;;;;4769635;29;20079;-82
2023/07/18 03:59:34;;;;;;;10.88;6.47;;;23.80;99.90;;;;;;4752575;29;20082;-82
2023/07/18 04:02:01;;;;;;;10.48;6.70;;;23.80;99.90;;;;;;4765187;29;20075;-81
2023/07/18 04:04:30;;;;;;;9.40;6.18;;;23.80;99.90;;;;;;4768314;30;20039;-83
2023/07/18 04:06:57;;;;;;;8.57;6.10;;;23.70;99.90;;;;;;4768414;29;20075;-82
2023/07/18 04:09:24;;;;;;;8.32;5.63;;;23.80;99.90;;;;;;4778811;29;20204;-82
2023/07/18 04:11:51;;;;;;;7.80;5.80;;;23.80;99.90;;;;;;4768524;30;20063;-82
2023/07/18 04:14:19;;;;;;;8.00;5.15;;;23.90;99.90;;;;;;4759457;29;20090;-82
2023/07/18 04:16:46;;;;;;;7.82;5.25;;;24.00;99.90;;;;;;4775749;29;20070;-82
2023/07/18 04:19:13;;;;;;;7.50;5.05;;;24.10;99.90;;;;;;4782769;29;20059;-82
2023/07/18 04:21:40;;;;;;;10.05;5.28;;;24.10;99.90;;;;;;4775724;29;20063;-82
2023/07/18 04:24:08;;;;;;;8.52;5.35;;;24.10;99.90;;;;;;4745030;29;20059;-82
2023/07/18 04:26:36;;;;;;;7.40;4.35;;;24.20;99.90;;;;;;4761519;29;20408;-82
2023/07/18 04:29:04;;;;;;;6.72;4.63;;;24.20;99.90;;;;;;4775270;29;20040;-82
2023/07/18 04:31:32;;;;;;;11.82;6.30;;;24.30;99.90;;;;;;4775519;29;20038;-82
2023/07/18 04:33:59;;;;;;;13.65;6.70;;;24.40;99.90;;;;;;4768280;29;20047;-82
2023/07/18 04:36:26;;;;;;;9.40;5.65;;;24.30;99.90;;;;;;4761214;30;20526;-82
2023/07/18 04:38:54;;;;;;;8.10;5.60;;;24.40;99.90;;;;;;4767719;30;23724;-82
2023/07/18 04:41:21;;;;;;;7.65;5.60;;;24.30;99.90;;;;;;4777849;29;20054;-83
2023/07/18 04:43:48;;;;;;;10.35;5.32;;;24.40;99.90;;;;;;4769221;29;20051;-83
2023/07/18 04:46:16;;;;;;;8.25;5.05;;;24.50;99.90;;;;;;4774987;29;20062;-82
2023/07/18 04:48:43;;;;;;;7.75;4.78;;;24.60;99.90;;;;;;4762241;29;20055;-83
2023/07/18 04:51:16;;;;;;;6.32;3.92;;;24.60;99.90;;;;;;4764365;29;20052;-82
2023/07/18 04:53:44;;;;;;;6.13;4.35;;;24.70;99.90;;;;;;4747701;29;20071;-83
2023/07/18 04:56:11;;;;;;;5.82;4.05;;;24.80;99.90;;;;;;4760234;29;20055;-83
2023/07/18 04:58:38;;;;;;;7.28;4.10;;;24.90;99.90;;;;;;4767906;29;20127;-83
2023/07/18 05:01:06;;;;;;;6.22;4.03;;;25.00;99.90;;;;;;4762754;29;20108;-82
2023/07/18 05:03:33;;;;;;;9.35;4.05;;;25.00;99.90;;;;;;4766402;29;20078;-83
2023/07/18 05:06:20;;;;;;;7.05;4.18;;;25.10;99.40;;;;;;4775384;29;20055;-83
2023/07/18 05:08:47;;;;;;;6.70;4.03;;;25.10;98.60;;;;;;4763938;29;20187;-83
2023/07/18 05:11:15;;;;;;;7.20;4.07;;;25.30;97.90;;;;;;4772922;29;20158;-83
2023/07/18 05:13:42;;;;;;;7.25;4.60;;;25.30;97.70;;;;;;4773021;29;20516;-82
2023/07/18 05:16:09;;;;;;;8.27;4.28;;;25.40;97.70;;;;;;4761841;29;20051;-82
2023/07/18 05:18:36;;;;;;;6.78;3.92;;;25.50;96.50;;;;;;4764420;29;20051;-83
2023/07/18 05:21:03;;;;;;;6.68;3.75;;;25.60;96.00;;;;;;4776216;29;20050;-82
2023/07/18 05:23:30;;;;;;;5.28;3.50;;;25.80;95.70;;;;;;4762486;30;20188;-83
2023/07/18 05:25:57;;;;;;;4.40;3.05;;;25.90;94.20;;;;;;4770313;29;20051;-83
2023/07/18 05:28:25;;;;;;;5.15;3.10;;;26.00;92.80;;;;;;4755726;29;20554;-81
2023/07/18 05:30:52;;;;;;;6.65;2.92;;;26.10;92.10;;;;;;4775501;29;20128;-83
2023/07/18 05:33:19;;;;;;;3.20;2.50;;;26.20;91.50;;;;;;4765791;29;20063;-82
2023/07/18 05:35:47;;;;;;;6.53;2.63;;;26.40;91.20;;;;;;4772687;29;20212;-83
2023/07/18 05:38:14;;;;;;;4.35;2.65;;;26.40;90.30;;;;;;4748898;30;20130;-82
2023/07/18 05:40:41;;;;;;;5.68;2.53;;;26.50;88.50;;;;;;4766775;29;20085;-82
2023/07/18 05:43:08;;;;;;;4.40;2.67;;;26.60;88.40;;;;;;4749568;29;20148;-83
2023/07/18 05:45:35;;;;;;;4.32;2.28;;;26.80;88.00;;;;;;4766139;29;20047;-81
2023/07/18 05:48:03;;;;;;;6.10;2.58;;;26.80;86.00;;;;;;4761386;29;20047;-82
2023/07/18 05:50:30;;;;;;;4.78;2.58;;;26.80;85.70;;;;;;4768786;29;20142;-80
2023/07/18 05:52:58;;;;;;;4.60;2.50;;;27.00;85.10;;;;;;4775764;29;20055;-82
2023/07/18 05:55:27;;;;;;;2.60;2.10;;;27.10;85.70;;;;;;4772138;29;20046;-81
2023/07/18 05:57:55;;;;;;;2.95;2.45;;;27.30;85.30;;;;;;4761937;29;20052;-80
2023/07/18 06:00:22;;;;;;;4.55;2.53;;;27.40;84.40;;;;;;4760513;29;20062;-83
2023/07/18 06:02:49;;;;;;;3.42;2.17;;;27.50;84.00;;;;;;4747119;29;21054;-81
2023/07/18 06:05:16;;;;;;;4.93;2.63;;;27.60;84.10;;;;;;4761690;29;20063;-81
2023/07/18 06:07:43;;;;;;;4.53;2.38;;;27.70;82.00;;;;;;4762889;29;20044;-80
2023/07/18 06:10:11;;;;;;;4.72;2.53;;;27.70;80.50;;;;;;4778417;29;20055;-83
2023/07/18 06:12:38;;;;;;;5.97;3.53;;;27.80;80.60;;;;;;4749225;29;20055;-81
2023/07/18 06:15:06;;;;;;;2.78;2.20;;;28.00;80.50;;;;;;4761783;29;20117;-81
2023/07/18 06:17:35;;;;;;;5.28;2.40;;;28.00;80.30;;;;;;4761680;29;20681;-83
2023/07/18 06:20:09;;;;;;;4.80;2.17;;;28.20;80.40;;;;;;4765907;29;20146;-83
2023/07/18 06:22:36;;;;;;;4.60;2.05;;;28.40;80.20;;;;;;4754155;29;23030;-82
2023/07/18 06:25:03;;;;;;;4.85;2.20;;;28.50;79.60;;;;;;4763055;29;20116;-82
2023/07/18 06:27:31;;;;;;;5.00;2.40;;;28.50;76.20;;;;;;4760589;29;20491;-81
2023/07/18 06:29:59;;;;;;;3.38;2.45;;;28.50;76.10;;;;;;4745169;29;20063;-81
2023/07/18 06:32:28;;;;;;;3.70;2.30;;;28.50;74.60;;;;;;4774196;29;20091;-81
2023/07/18 06:34:56;;;;;;;4.25;2.55;;;28.60;75.20;;;;;;4748282;29;20071;-82
2023/07/18 06:37:32;;;;;;;3.65;2.15;;;29.00;75.90;;;;;;4763456;29;20504;-81
2023/07/18 06:39:59;;;;;;;3.38;2.20;;;28.80;74.60;;;;;;4779402;29;20134;-82
2023/07/18 06:42:26;;;;;;;5.35;2.42;;;28.30;74.50;;;;;;4779584;29;20512;-80
2023/07/18 06:44:54;;;;;;;3.90;2.25;;;28.00;76.30;;;;;;4774522;29;20051;-81
2023/07/18 06:47:21;;;;;;;4.00;2.30;;;28.20;75.80;;;;;;4776509;29;20063;-78
2023/07/18 06:49:48;;;;;;;4.20;1.70;;;28.50;70.90;;;;;;4774172;29;22826;-80
2023/07/18 06:52:15;;;;;;;4.50;2.00;;;28.90;71.80;;;;;;4762636;29;20063;-83
2023/07/18 06:54:42;;;;;;;2.95;1.95;;;29.10;70.50;;;;;;4779378;29;20148;-82
2023/07/18 06:57:10;;;;;;;3.90;2.38;;;29.20;70.70;;;;;;4768849;29;20068;-82
2023/07/18 06:59:37;;;;;;;7.03;2.25;;;29.30;69.70;;;;;;4769999;30;23004;-82
2023/07/18 07:02:05;;;;;;;4.40;2.15;;;29.50;70.40;;;;;;4751177;30;20074;-80
2023/07/18 07:04:32;;;;;;;4.05;1.85;;;29.60;70.40;;;;;;4782081;29;20039;-81
2023/07/18 07:06:59;;;;;;;2.88;1.98;;;29.40;68.00;;;;;;4777431;29;20142;-82
2023/07/18 07:09:26;;;;;;;4.35;2.22;;;29.50;69.10;;;;;;4781374;29;20105;-81
2023/07/18 07:11:54;;;;;;;4.25;1.88;;;29.80;68.60;;;;;;4781077;29;20054;-80
2023/07/18 07:14:21;;;;;;;3.90;2.15;;;29.80;66.40;;;;;;4752585;29;20063;-81
2023/07/18 07:16:48;;;;;;;3.97;1.75;;;29.80;67.20;;;;;;4762312;29;20988;-81
2023/07/18 07:19:15;;;;;;;3.83;1.92;;;29.80;65.70;;;;;;4770879;30;20533;-80
2023/07/18 07:21:42;;;;;;;4.13;2.10;;;29.90;63.20;;;;;;4767900;30;20066;-82
2023/07/18 07:24:09;;;;;;;4.88;1.88;;;30.20;64.60;;;;;;4774338;29;20040;-81
2023/07/18 07:26:37;;;;;;;4.07;2.08;;;30.20;63.40;;;;;;4763013;30;20109;-81
2023/07/18 07:29:06;;;;;;;3.72;2.00;;;30.20;64.00;;;;;;4767099;30;20059;-81
2023/07/18 07:31:34;;;;;;;4.32;1.70;;;30.30;64.90;;;;;;4771290;29;20049;-79
2023/07/18 07:34:01;;;;;;;3.90;1.45;;;30.30;64.70;;;;;;4769871;29;20516;-82
2023/07/18 07:36:29;;;;;;;5.30;2.20;;;30.20;62.90;;;;;;4763777;29;21078;-81
2023/07/18 07:38:56;;;;;;;3.15;1.90;;;30.30;62.90;;;;;;4771748;29;20813;-83
2023/07/18 07:41:23;;;;;;;3.00;1.60;;;30.50;62.10;;;;;;4766337;29;20079;-80
2023/07/18 07:43:51;;;;;;;3.25;1.58;;;30.40;60.90;;;;;;4763978;29;20056;-81
2023/07/18 07:46:18;;;;;;;2.35;1.45;;;30.20;59.00;;;;;;4760872;29;20070;-82
2023/07/18 07:48:45;;;;;;;2.92;2.00;;;30.20;59.80;;;;;;4775906;29;20461;-82
2023/07/18 07:51:18;;;;;;;3.90;1.75;;;30.30;61.20;;;;;;4762712;29;20054;-81
2023/07/18 07:53:45;;;;;;;3.13;2.20;;;30.30;59.60;;;;;;4758617;30;20077;-82
2023/07/18 07:56:13;;;;;;;6.65;2.55;;;30.40;60.50;;;;;;4759797;29;20075;-81
2023/07/18 07:58:40;;;;;;;5.50;2.00;;;30.40;59.70;;;;;;4772420;29;20059;-81
2023/07/18 08:01:07;;;;;;;4.85;1.60;;;30.60;58.80;;;;;;4758426;29;20055;-82
2023/07/18 08:03:34;;;;;;;4.15;1.85;;;30.50;58.70;;;;;;4752244;30;20875;-80
2023/07/18 08:06:01;;;;;;;3.58;1.60;;;30.50;59.50;;;;;;4776693;29;20040;-81
2023/07/18 08:08:28;;;;;;;3.95;2.05;;;30.60;59.40;;;;;;4763785;29;20466;-81
2023/07/18 08:10:55;;;;;;;7.75;2.42;;;30.70;57.50;;;;;;4758025;29;20420;-83
2023/07/18 08:13:23;;;;;;;4.65;1.90;;;30.60;57.00;;;;;;4762057;30;20099;-80
2023/07/18 08:15:52;;;;;;;2.75;1.63;;;30.70;57.70;;;;;;4764796;30;20051;-80
2023/07/18 08:18:19;;;;;;;3.58;1.90;;;30.50;56.30;;;;;;4764973;29;20166;-83
2023/07/18 08:20:46;;;;;;;2.47;1.60;;;30.80;57.90;;;;;;4746154;29;20061;-83
2023/07/18 08:23:14;;;;;;;7.22;2.22;;;31.00;58.40;;;;;;4759836;29;20058;-82
2023/07/18 08:25:43;;;;;;;3.60;1.85;;;30.60;57.30;;;;;;4748602;30;20069;-81
2023/07/18 08:28:10;;;;;;;3.92;2.03;;;30.70;57.50;;;;;;4778298;29;20047;-81
2023/07/18 08:30:41;;;;;;;2.72;2.00;;;30.80;57.10;;;;;;4765279;29;20040;-79
2023/07/18 08:33:09;;;;;;;5.82;2.13;;;30.60;53.70;;;;;;4761923;29;25155;-81
2023/07/18 08:35:38;;;;;;;4.93;1.52;;;30.60;54.80;;;;;;4768031;29;20055;-79
2023/07/18 08:38:05;;;;;;;3.92;2.05;;;30.80;54.40;;;;;;4770213;29;20055;-80
2023/07/18 08:40:32;;;;;;;4.15;1.65;;;30.80;53.30;;;;;;4776760;29;20079;-81
2023/07/18 08:42:59;;;;;;;5.28;2.30;;;30.80;56.40;;;;;;4781316;29;20054;-80
2023/07/18 08:45:32;;;;;;;3.90;1.88;;;31.00;56.80;;;;;;4761209;29;20047;-79
2023/07/18 08:47:59;;;;;;;4.22;2.00;;;31.10;56.70;;;;;;4774065;29;20040;-80
2023/07/18 08:50:28;;;;;;;4.05;1.88;;;31.20;56.50;;;;;;4762580;29;20055;-80
2023/07/18 08:52:56;;;;;;;3.58;1.90;;;30.80;57.20;;;;;;4775653;29;20070;-79
2023/07/18 08:55:23;;;;;;;3.65;1.92;;;30.60;58.60;;;;;;4768014;29;20057;-79
2023/07/18 08:57:50;;;;;;;4.35;2.00;;;30.50;58.10;;;;;;4773217;29;20056;-79
2023/07/18 09:00:20;;;;;;;5.68;2.50;;;30.40;58.30;;;;;;4759564;29;20666;-79
2023/07/18 09:02:48;;;;;;;3.17;2.17;;;30.40;58.20;;;;;;4776913;29;20053;-81
2023/07/18 09:05:36;;;;;;;5.07;2.03;;;30.60;58.40;;;;;;4759102;29;20124;-79
2023/07/18 09:08:05;;;;;;;4.43;2.08;;;30.90;57.60;;;;;;4777236;29;20061;-81
2023/07/18 09:10:33;;;;;;;3.55;1.77;;;30.70;57.80;;;;;;4745527;29;20056;-82
2023/07/18 09:13:05;;;;;;;4.97;2.05;;;30.80;57.30;;;;;;4765227;29;20090;-81
2023/07/18 09:15:34;;;;;;;5.13;2.53;;;30.90;57.20;;;;;;4750527;29;20126;-80
2023/07/18 09:18:04;;;;;;;4.70;1.83;;;30.90;56.40;;;;;;4775305;29;20057;-80
2023/07/18 09:20:32;;;;;;;5.50;2.35;;;31.00;56.20;;;;;;4771054;29;20192;-80
2023/07/18 09:23:02;;;;;;;3.35;1.88;;;31.10;56.40;;;;;;4770109;29;20111;-81
2023/07/18 09:25:30;;;;;;;4.20;2.25;;;31.10;57.20;;;;;;4773197;29;20048;-80
2023/07/18 09:27:58;;;;;;;4.03;2.13;;;30.90;56.80;;;;;;4766861;29;20051;-80
2023/07/18 09:30:36;;;;;;;4.35;2.25;;;30.80;56.70;;;;;;4771318;29;20094;-80
2023/07/18 09:33:07;;;;;;;6.00;2.30;;;30.80;58.10;;;;;;4778892;29;20635;-80
2023/07/18 09:35:39;;;;;;;6.65;2.17;;;30.80;57.30;;;;;;4769593;29;20531;-81
2023/07/18 09:38:09;;;;;;;5.10;2.25;;;30.90;57.60;;;;;;4761578;29;20055;-80
2023/07/18 09:40:39;;;;;;;5.07;2.03;;;30.60;57.30;;;;;;4774721;29;22233;-80
2023/07/18 09:43:07;;;;;;;3.72;2.05;;;30.50;57.50;;;;;;4764952;29;20051;-79
2023/07/18 09:45:35;;;;;;;5.53;2.08;;;30.40;57.60;;;;;;4764898;30;20050;-81
2023/07/18 09:48:03;;;;;;;8.05;3.03;;;30.10;57.70;;;;;;4763351;29;20417;-80
2023/07/18 09:50:33;;;;;;;10.15;4.53;;;30.20;58.60;;;;;;4780279;29;20077;-80
2023/07/18 09:53:03;;;;;;;5.60;3.10;;;30.10;58.50;;;;;;4763751;29;20048;-79
2023/07/18 09:55:34;;;;;;;6.30;2.10;;;30.10;58.40;;;;;;4774614;29;20048;-81
2023/07/18 09:58:02;;;;;;;4.93;2.53;;;30.10;58.40;;;;;;4766750;29;20400;-78
2023/07/18 10:00:29;;;;;;;5.57;2.67;;;30.10;59.30;;;;;;4749246;29;20063;-81
2023/07/18 10:02:57;;;;;;;6.18;2.33;;;30.30;58.60;;;;;;4777519;29;20816;-81
2023/07/18 10:05:25;;;;;;;4.90;2.45;;;30.20;57.80;;;;;;4775212;29;20500;-79
2023/07/18 10:07:53;;;;;;;6.10;2.50;;;30.10;58.10;;;;;;4761008;30;20133;-79
2023/07/18 10:10:20;;;;;;;5.20;2.25;;;30.00;57.20;;;;;;4761678;30;20066;-79
2023/07/18 10:12:54;;;;;;;7.20;2.60;;;30.30;58.00;;;;;;4758772;29;20059;-78
2023/07/18 10:15:23;;;;;;;6.28;2.78;;;30.50;57.10;;;;;;4775121;29;20793;-78
2023/07/18 10:17:50;;;;;;;2.92;1.98;;;30.70;57.00;;;;;;4777074;29;20047;-80
2023/07/18 10:20:39;;;;;;;5.68;2.78;;;30.60;56.70;;;;;;4775825;29;20543;-80
2023/07/18 10:23:07;;;;;;;6.88;2.40;;;30.70;56.70;;;;;;4773077;29;20112;-80
2023/07/18 10:25:34;;;;;;;4.43;2.40;;;30.80;56.10;;;;;;4775274;29;20051;-77
2023/07/18 10:28:02;;;;;;;3.58;2.15;;;30.70;56.00;;;;;;4773948;29;20512;-81
2023/07/18 10:30:41;;;;;;;4.78;2.83;;;30.70;57.00;;;;;;4777974;29;20576;-80
2023/07/18 10:33:09;;;;;;;4.60;2.08;;;30.80;57.30;;;;;;4773144;29;20047;-80
2023/07/18 10:35:41;;;;;;;4.80;2.50;;;30.90;56.90;;;;;;4757727;29;20051;-79
2023/07/18 10:38:14;;;;;;;6.72;2.90;;;31.00;56.90;;;;;;4775039;29;20070;-81
2023/07/18 10:40:45;;;;;;;5.13;2.13;;;31.20;57.30;;;;;;4757344;30;20059;-78
2023/07/18 10:43:16;;;;;;;3.70;2.30;;;31.10;55.30;;;;;;4772720;29;20415;-80
2023/07/18 10:45:45;;;;;;;4.22;1.85;;;31.00;55.60;;;;;;4772545;29;20142;-80
2023/07/18 10:48:19;;;;;;;4.90;2.67;;;31.10;55.70;;;;;;4766048;29;20039;-81
2023/07/18 10:50:47;;;;;;;4.45;2.22;;;31.00;55.80;;;;;;4766555;29;20075;-84
2023/07/18 10:53:18;;;;;;;2.72;1.80;;;30.90;55.40;;;;;;4760573;29;20454;-80
2023/07/18 10:55:47;;;;;;;3.47;1.83;;;30.60;54.30;;;;;;4768983;29;20053;-82
2023/07/18 10:58:16;;;;;;;3.92;1.70;;;30.80;54.10;;;;;;4761968;29;20039;-80
2023/07/18 11:00:44;;;;;;;3.58;2.00;;;30.90;53.40;;;;;;4761280;29;20043;-80
2023/07/18 11:03:34;;;;;;;4.47;2.10;;;31.10;54.50;;;;;;4779330;29;20130;-81
2023/07/18 11:06:04;;;;;;;6.47;1.92;;;31.00;53.00;;;;;;4759266;29;20047;-81
2023/07/18 11:08:32;;;;;;;3.50;1.77;;;31.00;52.80;;;;;;4758123;29;20135;-80
2023/07/18 11:11:03;;;;;;;3.65;2.00;;;31.10;52.00;;;;;;4758055;29;20062;-82
2023/07/18 11:13:35;;;;;;;3.58;1.55;;;30.90;51.60;;;;;;4778612;29;20051;-79
2023/07/18 11:16:06;;;;;;;3.35;1.80;;;31.00;52.20;;;;;;4762092;29;20065;-78
2023/07/18 11:18:44;;;;;;;3.03;1.47;;;31.10;51.90;;;;;;4758913;30;20083;-82
2023/07/18 11:21:13;;;;;;;2.90;1.60;;;31.10;51.90;;;;;;4764759;29;20335;-79
2023/07/18 11:23:41;;;;;;;3.90;1.73;;;31.10;51.80;;;;;;4770883;30;20126;-80
2023/07/18 11:26:19;;;;;;;3.35;1.73;;;31.10;52.40;;;;;;4750795;30;22054;-80
2023/07/18 11:28:51;;;;;;;3.72;1.90;;;31.20;52.10;;;;;;4762127;30;20431;-80
2023/07/18 11:31:28;;;;;;;3.10;1.95;;;31.00;51.30;;;;;;4772841;29;20110;-81
2023/07/18 11:34:00;;;;;;;3.35;1.67;;;31.10;51.60;;;;;;4778814;29;20066;-81
2023/07/18 11:36:32;;;;;;;3.65;1.75;;;31.00;51.50;;;;;;4766936;29;20073;-79
2023/07/18 11:39:06;;;;;;;3.72;2.10;;;31.10;52.30;;;;;;4777776;29;20066;-82
2023/07/18 11:41:35;;;;;;;3.75;2.00;;;31.10;52.80;;;;;;4764881;30;20100;-79
2023/07/18 11:44:04;;;;;;;4.03;1.40;;;31.10;52.00;;;;;;4758236;29;20577;-80
2023/07/18 11:46:58;;;;;;;10.45;7.30;;;31.10;52.20;;;;;;4762014;29;20047;-80
2023/07/18 11:49:35;;;;;;;4.20;1.88;;;31.10;52.80;;;;;;4762749;29;20176;-79
2023/07/18 11:52:08;;;;;;;3.92;1.90;;;31.20;52.00;;;;;;4763828;29;20070;-79
2023/07/18 11:54:35;;;;;;;4.68;1.80;;;31.20;52.30;;;;;;4763015;29;20075;-79
2023/07/18 11:57:04;;;;;;;4.90;1.77;;;31.50;54.10;;;;;;4776103;29;20056;-80
2023/07/18 11:59:32;;;;;;;2.90;1.98;;;31.50;52.90;;;;;;4776040;29;20059;-81
2023/07/18 12:02:01;;;;;;;5.55;2.40;;;31.40;52.30;;;;;;4777246;29;20062;-79
2023/07/18 12:04:28;;;;;;;3.50;1.83;;;31.30;52.60;;;;;;4762532;29;20051;-78
2023/07/18 12:06:57;;;;;;;3.30;1.67;;;31.30;52.40;;;;;;4773439;29;20055;-80
2023/07/18 12:09:25;;;;;;;4.82;2.00;;;31.40;52.80;;;;;;4762942;30;20059;-80
2023/07/18 12:11:54;;;;;;;4.38;1.90;;;31.20;51.90;;;;;;4776744;29;20096;-82
2023/07/18 12:14:21;;;;;;;3.83;1.60;;;31.20;52.70;;;;;;4776891;29;20059;-82
2023/07/18 12:16:48;;;;;;;3.97;2.00;;;31.20;53.30;;;;;;4757502;29;20133;-82
2023/07/18 12:19:15;;;;;;;3.00;1.83;;;31.10;52.00;;;;;;4775228;29;21874;-79
2023/07/18 12:21:42;;;;;;;4.45;1.90;;;31.10;52.90;;;;;;4762373;29;20039;-80
2023/07/18 12:24:10;;;;;;;2.47;1.23;;;31.10;52.10;;;;;;4774675;29;20122;-79
2023/07/18 12:26:37;;;;;;;4.53;1.90;;;31.10;51.80;;;;;;4775298;29;20073;-80
2023/07/18 12:29:05;;;;;;;4.38;1.95;;;31.30;51.80;;;;;;4764804;29;20043;-80
2023/07/18 12:31:35;;;;;;;4.55;2.05;;;31.20;51.90;;;;;;4764285;29;20116;-81
2023/07/18 12:34:02;;;;;;;2.90;1.52;;;31.40;52.90;;;;;;4766569;29;20082;-80
2023/07/18 12:36:30;;;;;;;3.67;2.20;;;31.30;51.80;;;;;;4777482;29;20083;-80
2023/07/18 12:38:57;;;;;;;2.35;1.25;;;31.30;51.90;;;;;;4774507;29;22779;-80
2023/07/18 12:41:24;;;;;;;3.70;1.70;;;31.40;52.60;;;;;;4774117;29;20126;-80
2023/07/18 12:43:51;;;;;;;3.28;1.73;;;31.40;52.00;;;;;;4775977;29;20068;-81
2023/07/18 12:46:22;;;;;;;3.53;1.60;;;31.50;52.60;;;;;;4745499;29;20059;-80
2023/07/18 12:48:49;;;;;;;6.93;1.98;;;31.50;52.50;;;;;;4772283;29;20071;-80
2023/07/18 12:51:30;;;;;;;4.25;1.77;;;31.40;52.30;;;;;;4774574;29;20515;-81
2023/07/18 12:53:57;;;;;;;2.97;1.73;;;31.40;52.20;;;;;;4780377;29;20116;-80